sensor_id;sensor_type;location;lat;lon;timestamp;P1;durP1;ratioP1;P2;durP2;ratioP2
42110;SDS011;27766;52.174;5.456;2022-11-25T00:01:07;10.75;;;3.70;;
42110;SDS011;27766;52.174;5.456;2022-11-25T00:03:35;10.30;;;3.50;;
42110;SDS011;27766;52.174;5.456;2022-11-25T00:06:13;13.75;;;3.33;;
42110;SDS011;27766;52.174;5.456;2022-11-25T00:08:47;8.20;;;3.13;;
42110;SDS011;27766;52.174;5.456;2022-11-25T00:11:15;9.15;;;3.33;;
42110;SDS011;27766;52.174;5.456;2022-11-25T00:13:44;9.57;;;3.33;;
42110;SDS011;27766;52.174;5.456;2022-11-25T00:16:13;12.68;;;3.83;;
42110;SDS011;27766;52.174;5.456;2022-11-25T00:18:45;8.63;;;3.08;;
42110;SDS011;27766;52.174;5.456;2022-11-25T00:21:16;15.23;;;3.42;;
42110;SDS011;27766;52.174;5.456;2022-11-25T00:23:49;10.38;;;3.28;;
42110;SDS011;27766;52.174;5.456;2022-11-25T00:26:19;11.60;;;3.53;;
42110;SDS011;27766;52.174;5.456;2022-11-25T00:28:47;9.55;;;2.85;;
42110;SDS011;27766;52.174;5.456;2022-11-25T00:31:15;11.30;;;2.97;;
42110;SDS011;27766;52.174;5.456;2022-11-25T00:33:47;10.90;;;3.05;;
42110;SDS011;27766;52.174;5.456;2022-11-25T00:38:46;17.75;;;4.00;;
42110;SDS011;27766;52.174;5.456;2022-11-25T00:41:18;13.57;;;4.57;;
42110;SDS011;27766;52.174;5.456;2022-11-25T00:44:04;9.35;;;3.42;;
42110;SDS011;27766;52.174;5.456;2022-11-25T00:46:51;10.27;;;3.58;;
42110;SDS011;27766;52.174;5.456;2022-11-25T00:49:19;7.85;;;3.40;;
42110;SDS011;27766;52.174;5.456;2022-11-25T00:51:46;10.43;;;3.75;;
42110;SDS011;27766;52.174;5.456;2022-11-25T00:54:13;13.63;;;4.38;;
42110;SDS011;27766;52.174;5.456;2022-11-25T00:56:40;10.93;;;3.45;;
42110;SDS011;27766;52.174;5.456;2022-11-25T00:59:07;9.68;;;3.45;;
42110;SDS011;27766;52.174;5.456;2022-11-25T01:01:35;11.18;;;3.63;;
42110;SDS011;27766;52.174;5.456;2022-11-25T01:04:03;7.20;;;3.17;;
42110;SDS011;27766;52.174;5.456;2022-11-25T01:06:30;8.73;;;2.90;;
42110;SDS011;27766;52.174;5.456;2022-11-25T01:08:57;9.30;;;3.42;;
42110;SDS011;27766;52.174;5.456;2022-11-25T01:11:24;24.48;;;4.32;;
42110;SDS011;27766;52.174;5.456;2022-11-25T01:13:52;18.50;;;3.72;;
42110;SDS011;27766;52.174;5.456;2022-11-25T01:16:27;8.70;;;2.90;;
42110;SDS011;27766;52.174;5.456;2022-11-25T01:18:57;9.00;;;3.67;;
42110;SDS011;27766;52.174;5.456;2022-11-25T01:21:26;9.48;;;3.38;;
42110;SDS011;27766;52.174;5.456;2022-11-25T01:23:55;19.73;;;4.13;;
42110;SDS011;27766;52.174;5.456;2022-11-25T01:26:25;11.32;;;3.25;;
42110;SDS011;27766;52.174;5.456;2022-11-25T01:29:00;19.73;;;5.25;;
42110;SDS011;27766;52.174;5.456;2022-11-25T01:31:30;10.63;;;4.47;;
42110;SDS011;27766;52.174;5.456;2022-11-25T01:34:03;16.10;;;3.97;;
42110;SDS011;27766;52.174;5.456;2022-11-25T01:36:32;17.40;;;3.95;;
42110;SDS011;27766;52.174;5.456;2022-11-25T01:38:59;7.72;;;3.55;;
42110;SDS011;27766;52.174;5.456;2022-11-25T01:41:28;10.68;;;3.50;;
42110;SDS011;27766;52.174;5.456;2022-11-25T01:44:14;23.38;;;4.15;;
42110;SDS011;27766;52.174;5.456;2022-11-25T01:49:16;8.98;;;3.33;;
42110;SDS011;27766;52.174;5.456;2022-11-25T01:57:31;12.02;;;4.70;;
42110;SDS011;27766;52.174;5.456;2022-11-25T02:00:04;11.68;;;3.75;;
42110;SDS011;27766;52.174;5.456;2022-11-25T02:02:33;15.65;;;4.15;;
42110;SDS011;27766;52.174;5.456;2022-11-25T02:05:00;13.88;;;4.28;;
42110;SDS011;27766;52.174;5.456;2022-11-25T02:07:39;8.38;;;3.83;;
42110;SDS011;27766;52.174;5.456;2022-11-25T02:10:09;9.88;;;3.55;;
42110;SDS011;27766;52.174;5.456;2022-11-25T02:12:40;16.70;;;3.65;;
42110;SDS011;27766;52.174;5.456;2022-11-25T02:15:09;16.95;;;4.20;;
42110;SDS011;27766;52.174;5.456;2022-11-25T02:17:37;11.65;;;3.85;;
42110;SDS011;27766;52.174;5.456;2022-11-25T02:20:08;7.78;;;3.15;;
42110;SDS011;27766;52.174;5.456;2022-11-25T02:25:38;15.93;;;3.45;;
42110;SDS011;27766;52.174;5.456;2022-11-25T02:28:09;11.38;;;3.58;;
42110;SDS011;27766;52.174;5.456;2022-11-25T02:30:39;17.73;;;4.65;;
42110;SDS011;27766;52.174;5.456;2022-11-25T02:33:06;21.15;;;4.30;;
42110;SDS011;27766;52.174;5.456;2022-11-25T02:38:04;11.25;;;3.38;;
42110;SDS011;27766;52.174;5.456;2022-11-25T02:43:11;12.65;;;3.72;;
42110;SDS011;27766;52.174;5.456;2022-11-25T02:45:44;12.05;;;3.08;;
42110;SDS011;27766;52.174;5.456;2022-11-25T02:48:16;13.18;;;3.85;;
42110;SDS011;27766;52.174;5.456;2022-11-25T02:50:43;15.27;;;3.95;;
42110;SDS011;27766;52.174;5.456;2022-11-25T02:53:10;14.63;;;4.63;;
42110;SDS011;27766;52.174;5.456;2022-11-25T02:55:37;17.55;;;5.32;;
42110;SDS011;27766;52.174;5.456;2022-11-25T02:58:04;13.55;;;4.22;;
42110;SDS011;27766;52.174;5.456;2022-11-25T03:00:32;13.35;;;3.88;;
42110;SDS011;27766;52.174;5.456;2022-11-25T03:02:59;12.13;;;3.90;;
42110;SDS011;27766;52.174;5.456;2022-11-25T03:05:26;7.32;;;4.15;;
42110;SDS011;27766;52.174;5.456;2022-11-25T03:07:54;9.55;;;4.10;;
42110;SDS011;27766;52.174;5.456;2022-11-25T03:10:21;11.73;;;3.50;;
42110;SDS011;27766;52.174;5.456;2022-11-25T03:12:49;14.80;;;4.35;;
42110;SDS011;27766;52.174;5.456;2022-11-25T03:15:16;13.82;;;3.97;;
42110;SDS011;27766;52.174;5.456;2022-11-25T03:17:44;10.63;;;4.25;;
42110;SDS011;27766;52.174;5.456;2022-11-25T03:20:11;9.85;;;3.50;;
42110;SDS011;27766;52.174;5.456;2022-11-25T03:22:42;12.98;;;4.10;;
42110;SDS011;27766;52.174;5.456;2022-11-25T03:25:11;13.80;;;3.97;;
42110;SDS011;27766;52.174;5.456;2022-11-25T03:27:39;16.45;;;4.38;;
42110;SDS011;27766;52.174;5.456;2022-11-25T03:30:08;10.55;;;3.38;;
42110;SDS011;27766;52.174;5.456;2022-11-25T03:32:38;9.20;;;3.92;;
42110;SDS011;27766;52.174;5.456;2022-11-25T03:35:05;11.10;;;3.78;;
42110;SDS011;27766;52.174;5.456;2022-11-25T03:37:33;9.65;;;3.78;;
42110;SDS011;27766;52.174;5.456;2022-11-25T03:40:00;7.60;;;4.15;;
42110;SDS011;27766;52.174;5.456;2022-11-25T03:42:28;13.10;;;4.63;;
42110;SDS011;27766;52.174;5.456;2022-11-25T03:44:55;9.40;;;3.65;;
42110;SDS011;27766;52.174;5.456;2022-11-25T03:47:22;12.88;;;4.32;;
42110;SDS011;27766;52.174;5.456;2022-11-25T03:49:50;10.55;;;4.10;;
42110;SDS011;27766;52.174;5.456;2022-11-25T03:52:17;9.32;;;3.97;;
42110;SDS011;27766;52.174;5.456;2022-11-25T03:54:44;8.63;;;3.88;;
42110;SDS011;27766;52.174;5.456;2022-11-25T03:57:11;11.55;;;4.32;;
42110;SDS011;27766;52.174;5.456;2022-11-25T03:59:38;13.52;;;3.95;;
42110;SDS011;27766;52.174;5.456;2022-11-25T04:02:05;5.43;;;3.00;;
42110;SDS011;27766;52.174;5.456;2022-11-25T04:04:32;12.32;;;4.40;;
42110;SDS011;27766;52.174;5.456;2022-11-25T04:07:00;12.13;;;3.55;;
42110;SDS011;27766;52.174;5.456;2022-11-25T04:09:27;9.13;;;3.30;;
42110;SDS011;27766;52.174;5.456;2022-11-25T04:11:54;9.75;;;3.38;;
42110;SDS011;27766;52.174;5.456;2022-11-25T04:14:40;9.63;;;3.72;;
42110;SDS011;27766;52.174;5.456;2022-11-25T04:17:07;15.02;;;4.53;;
42110;SDS011;27766;52.174;5.456;2022-11-25T04:19:34;13.85;;;4.40;;
42110;SDS011;27766;52.174;5.456;2022-11-25T04:22:01;9.45;;;2.95;;
42110;SDS011;27766;52.174;5.456;2022-11-25T04:24:29;6.55;;;3.13;;
42110;SDS011;27766;52.174;5.456;2022-11-25T04:26:56;6.80;;;2.55;;
42110;SDS011;27766;52.174;5.456;2022-11-25T04:29:23;9.52;;;3.47;;
42110;SDS011;27766;52.174;5.456;2022-11-25T04:31:50;14.48;;;3.65;;
42110;SDS011;27766;52.174;5.456;2022-11-25T04:34:17;9.00;;;3.28;;
42110;SDS011;27766;52.174;5.456;2022-11-25T04:36:44;15.38;;;2.90;;
42110;SDS011;27766;52.174;5.456;2022-11-25T04:39:11;7.43;;;3.13;;
42110;SDS011;27766;52.174;5.456;2022-11-25T04:41:38;14.35;;;2.92;;
42110;SDS011;27766;52.174;5.456;2022-11-25T04:44:05;12.35;;;2.53;;
42110;SDS011;27766;52.174;5.456;2022-11-25T04:46:34;11.75;;;2.88;;
42110;SDS011;27766;52.174;5.456;2022-11-25T04:49:05;10.82;;;2.58;;
42110;SDS011;27766;52.174;5.456;2022-11-25T04:51:32;6.32;;;2.20;;
42110;SDS011;27766;52.174;5.456;2022-11-25T04:53:59;6.15;;;2.10;;
42110;SDS011;27766;52.174;5.456;2022-11-25T04:56:26;3.10;;;1.90;;
42110;SDS011;27766;52.174;5.456;2022-11-25T04:58:53;4.55;;;1.80;;
42110;SDS011;27766;52.174;5.456;2022-11-25T05:01:39;7.15;;;2.05;;
42110;SDS011;27766;52.174;5.456;2022-11-25T05:04:07;5.15;;;1.73;;
42110;SDS011;27766;52.174;5.456;2022-11-25T05:06:34;5.47;;;2.03;;
42110;SDS011;27766;52.174;5.456;2022-11-25T05:09:01;5.18;;;1.63;;
42110;SDS011;27766;52.174;5.456;2022-11-25T05:11:30;5.97;;;1.45;;
42110;SDS011;27766;52.174;5.456;2022-11-25T05:13:57;3.03;;;1.75;;
42110;SDS011;27766;52.174;5.456;2022-11-25T05:16:24;4.72;;;1.50;;
42110;SDS011;27766;52.174;5.456;2022-11-25T05:18:53;5.90;;;2.17;;
42110;SDS011;27766;52.174;5.456;2022-11-25T05:21:22;3.08;;;1.30;;
42110;SDS011;27766;52.174;5.456;2022-11-25T05:23:49;2.20;;;1.42;;
42110;SDS011;27766;52.174;5.456;2022-11-25T05:26:21;4.15;;;1.30;;
42110;SDS011;27766;52.174;5.456;2022-11-25T05:28:49;2.97;;;1.45;;
42110;SDS011;27766;52.174;5.456;2022-11-25T05:31:16;10.05;;;1.58;;
42110;SDS011;27766;52.174;5.456;2022-11-25T05:33:44;6.35;;;1.40;;
42110;SDS011;27766;52.174;5.456;2022-11-25T05:36:11;2.50;;;1.38;;
42110;SDS011;27766;52.174;5.456;2022-11-25T05:38:38;2.90;;;1.23;;
42110;SDS011;27766;52.174;5.456;2022-11-25T05:41:05;2.55;;;1.20;;
42110;SDS011;27766;52.174;5.456;2022-11-25T05:43:33;3.63;;;1.20;;
42110;SDS011;27766;52.174;5.456;2022-11-25T05:46:04;4.18;;;1.67;;
42110;SDS011;27766;52.174;5.456;2022-11-25T05:48:32;3.67;;;1.48;;
42110;SDS011;27766;52.174;5.456;2022-11-25T05:50:59;2.50;;;1.45;;
42110;SDS011;27766;52.174;5.456;2022-11-25T05:53:27;4.85;;;1.83;;
42110;SDS011;27766;52.174;5.456;2022-11-25T05:55:57;6.30;;;1.75;;
42110;SDS011;27766;52.174;5.456;2022-11-25T05:58:29;4.88;;;1.73;;
42110;SDS011;27766;52.174;5.456;2022-11-25T06:00:57;4.53;;;2.15;;
42110;SDS011;27766;52.174;5.456;2022-11-25T06:03:24;4.07;;;1.85;;
42110;SDS011;27766;52.174;5.456;2022-11-25T06:05:55;4.30;;;1.70;;
42110;SDS011;27766;52.174;5.456;2022-11-25T06:08:24;1.67;;;1.10;;
42110;SDS011;27766;52.174;5.456;2022-11-25T06:10:52;3.97;;;1.80;;
42110;SDS011;27766;52.174;5.456;2022-11-25T06:13:20;5.97;;;1.83;;
42110;SDS011;27766;52.174;5.456;2022-11-25T06:15:47;8.05;;;1.60;;
42110;SDS011;27766;52.174;5.456;2022-11-25T06:18:15;4.28;;;1.65;;
42110;SDS011;27766;52.174;5.456;2022-11-25T06:20:43;5.80;;;2.13;;
42110;SDS011;27766;52.174;5.456;2022-11-25T06:23:11;6.18;;;1.55;;
42110;SDS011;27766;52.174;5.456;2022-11-25T06:25:38;4.43;;;2.13;;
42110;SDS011;27766;52.174;5.456;2022-11-25T06:28:05;5.53;;;1.85;;
42110;SDS011;27766;52.174;5.456;2022-11-25T06:30:39;7.50;;;1.98;;
42110;SDS011;27766;52.174;5.456;2022-11-25T06:33:06;3.22;;;1.95;;
42110;SDS011;27766;52.174;5.456;2022-11-25T06:35:33;7.50;;;2.50;;
42110;SDS011;27766;52.174;5.456;2022-11-25T06:38:01;4.32;;;2.20;;
42110;SDS011;27766;52.174;5.456;2022-11-25T06:40:29;4.68;;;2.22;;
42110;SDS011;27766;52.174;5.456;2022-11-25T06:42:57;7.40;;;2.67;;
42110;SDS011;27766;52.174;5.456;2022-11-25T06:45:25;3.72;;;2.30;;
42110;SDS011;27766;52.174;5.456;2022-11-25T06:47:52;8.15;;;3.17;;
42110;SDS011;27766;52.174;5.456;2022-11-25T06:50:19;2.60;;;2.20;;
42110;SDS011;27766;52.174;5.456;2022-11-25T06:52:46;6.50;;;4.18;;
42110;SDS011;27766;52.174;5.456;2022-11-25T06:55:14;5.35;;;3.17;;
42110;SDS011;27766;52.174;5.456;2022-11-25T06:57:41;9.43;;;4.22;;
42110;SDS011;27766;52.174;5.456;2022-11-25T07:00:08;8.02;;;4.18;;
42110;SDS011;27766;52.174;5.456;2022-11-25T07:02:35;4.60;;;3.53;;
42110;SDS011;27766;52.174;5.456;2022-11-25T07:05:11;8.18;;;4.50;;
42110;SDS011;27766;52.174;5.456;2022-11-25T07:07:38;5.65;;;3.63;;
42110;SDS011;27766;52.174;5.456;2022-11-25T07:10:05;8.75;;;4.95;;
42110;SDS011;27766;52.174;5.456;2022-11-25T07:12:33;4.65;;;3.47;;
42110;SDS011;27766;52.174;5.456;2022-11-25T07:15:00;5.47;;;3.80;;
42110;SDS011;27766;52.174;5.456;2022-11-25T07:17:27;8.20;;;5.05;;
42110;SDS011;27766;52.174;5.456;2022-11-25T07:19:54;5.85;;;4.55;;
42110;SDS011;27766;52.174;5.456;2022-11-25T07:22:21;7.90;;;4.32;;
42110;SDS011;27766;52.174;5.456;2022-11-25T07:24:48;8.77;;;5.20;;
42110;SDS011;27766;52.174;5.456;2022-11-25T07:27:15;7.65;;;3.85;;
42110;SDS011;27766;52.174;5.456;2022-11-25T07:29:42;7.38;;;3.70;;
42110;SDS011;27766;52.174;5.456;2022-11-25T07:32:31;5.85;;;4.38;;
42110;SDS011;27766;52.174;5.456;2022-11-25T07:34:59;15.55;;;4.20;;
42110;SDS011;27766;52.174;5.456;2022-11-25T07:37:26;7.35;;;4.38;;
42110;SDS011;27766;52.174;5.456;2022-11-25T07:39:53;12.48;;;5.82;;
42110;SDS011;27766;52.174;5.456;2022-11-25T07:42:20;7.18;;;4.60;;
42110;SDS011;27766;52.174;5.456;2022-11-25T07:44:47;6.43;;;3.67;;
42110;SDS011;27766;52.174;5.456;2022-11-25T07:47:14;8.57;;;4.28;;
42110;SDS011;27766;52.174;5.456;2022-11-25T07:49:41;6.63;;;4.13;;
42110;SDS011;27766;52.174;5.456;2022-11-25T07:52:09;5.22;;;3.67;;
42110;SDS011;27766;52.174;5.456;2022-11-25T07:54:36;8.45;;;4.88;;
42110;SDS011;27766;52.174;5.456;2022-11-25T07:57:03;11.30;;;4.28;;
42110;SDS011;27766;52.174;5.456;2022-11-25T07:59:30;7.82;;;4.88;;
42110;SDS011;27766;52.174;5.456;2022-11-25T08:01:57;11.23;;;4.13;;
42110;SDS011;27766;52.174;5.456;2022-11-25T08:04:24;13.15;;;4.60;;
42110;SDS011;27766;52.174;5.456;2022-11-25T08:06:51;12.35;;;5.13;;
42110;SDS011;27766;52.174;5.456;2022-11-25T08:09:21;9.27;;;4.78;;
42110;SDS011;27766;52.174;5.456;2022-11-25T08:11:49;8.88;;;4.63;;
42110;SDS011;27766;52.174;5.456;2022-11-25T08:14:17;12.50;;;5.45;;
42110;SDS011;27766;52.174;5.456;2022-11-25T08:16:45;8.50;;;4.95;;
42110;SDS011;27766;52.174;5.456;2022-11-25T08:19:13;11.23;;;5.95;;
42110;SDS011;27766;52.174;5.456;2022-11-25T08:21:41;11.70;;;4.93;;
42110;SDS011;27766;52.174;5.456;2022-11-25T08:24:12;7.28;;;4.63;;
42110;SDS011;27766;52.174;5.456;2022-11-25T08:26:41;8.93;;;5.07;;
42110;SDS011;27766;52.174;5.456;2022-11-25T08:29:09;10.68;;;5.00;;
42110;SDS011;27766;52.174;5.456;2022-11-25T08:34:10;9.90;;;5.07;;
42110;SDS011;27766;52.174;5.456;2022-11-25T08:36:43;8.05;;;4.68;;
42110;SDS011;27766;52.174;5.456;2022-11-25T08:39:14;8.00;;;4.28;;
42110;SDS011;27766;52.174;5.456;2022-11-25T08:42:03;12.88;;;5.05;;
42110;SDS011;27766;52.174;5.456;2022-11-25T08:44:31;5.40;;;3.53;;
42110;SDS011;27766;52.174;5.456;2022-11-25T08:46:58;6.90;;;4.57;;
42110;SDS011;27766;52.174;5.456;2022-11-25T08:49:25;9.55;;;5.15;;
42110;SDS011;27766;52.174;5.456;2022-11-25T08:51:52;7.70;;;4.47;;
42110;SDS011;27766;52.174;5.456;2022-11-25T08:54:19;14.18;;;4.88;;
42110;SDS011;27766;52.174;5.456;2022-11-25T08:56:46;6.95;;;4.68;;
42110;SDS011;27766;52.174;5.456;2022-11-25T08:59:13;8.93;;;3.92;;
42110;SDS011;27766;52.174;5.456;2022-11-25T09:01:41;9.50;;;4.15;;
42110;SDS011;27766;52.174;5.456;2022-11-25T09:04:08;12.40;;;4.93;;
42110;SDS011;27766;52.174;5.456;2022-11-25T09:06:35;7.90;;;4.43;;
42110;SDS011;27766;52.174;5.456;2022-11-25T09:09:04;11.82;;;4.22;;
42110;SDS011;27766;52.174;5.456;2022-11-25T09:11:32;7.15;;;4.03;;
42110;SDS011;27766;52.174;5.456;2022-11-25T09:13:59;10.52;;;4.57;;
42110;SDS011;27766;52.174;5.456;2022-11-25T09:16:26;8.75;;;4.43;;
42110;SDS011;27766;52.174;5.456;2022-11-25T09:18:54;8.23;;;3.35;;
42110;SDS011;27766;52.174;5.456;2022-11-25T09:21:22;7.70;;;3.50;;
42110;SDS011;27766;52.174;5.456;2022-11-25T09:23:51;10.18;;;3.92;;
42110;SDS011;27766;52.174;5.456;2022-11-25T09:26:22;8.20;;;4.38;;
42110;SDS011;27766;52.174;5.456;2022-11-25T09:28:54;5.90;;;2.75;;
42110;SDS011;27766;52.174;5.456;2022-11-25T09:31:22;6.90;;;3.53;;
42110;SDS011;27766;52.174;5.456;2022-11-25T09:33:49;5.53;;;3.17;;
42110;SDS011;27766;52.174;5.456;2022-11-25T09:36:17;7.65;;;3.25;;
42110;SDS011;27766;52.174;5.456;2022-11-25T09:38:45;8.40;;;3.88;;
42110;SDS011;27766;52.174;5.456;2022-11-25T09:53:22;8.55;;;3.47;;
42110;SDS011;27766;52.174;5.456;2022-11-25T09:56:17;9.02;;;3.20;;
42110;SDS011;27766;52.174;5.456;2022-11-25T09:58:52;4.35;;;3.00;;
42110;SDS011;27766;52.174;5.456;2022-11-25T10:01:26;7.40;;;3.28;;
42110;SDS011;27766;52.174;5.456;2022-11-25T10:04:08;9.85;;;3.58;;
42110;SDS011;27766;52.174;5.456;2022-11-25T10:06:44;8.65;;;3.67;;
42110;SDS011;27766;52.174;5.456;2022-11-25T10:09:23;5.30;;;3.03;;
42110;SDS011;27766;52.174;5.456;2022-11-25T10:11:53;6.85;;;3.60;;
42110;SDS011;27766;52.174;5.456;2022-11-25T10:14:31;9.20;;;3.05;;
42110;SDS011;27766;52.174;5.456;2022-11-25T10:17:10;7.68;;;3.42;;
42110;SDS011;27766;52.174;5.456;2022-11-25T10:19:59;6.97;;;2.85;;
42110;SDS011;27766;52.174;5.456;2022-11-25T10:22:32;6.45;;;3.20;;
42110;SDS011;27766;52.174;5.456;2022-11-25T10:25:18;9.25;;;3.30;;
42110;SDS011;27766;52.174;5.456;2022-11-25T10:30:24;7.07;;;2.92;;
42110;SDS011;27766;52.174;5.456;2022-11-25T10:33:03;7.80;;;2.55;;
42110;SDS011;27766;52.174;5.456;2022-11-25T10:35:33;6.18;;;2.72;;
42110;SDS011;27766;52.174;5.456;2022-11-25T10:38:05;5.07;;;2.88;;
42110;SDS011;27766;52.174;5.456;2022-11-25T10:40:45;11.73;;;3.20;;
42110;SDS011;27766;52.174;5.456;2022-11-25T10:43:15;6.43;;;3.28;;
42110;SDS011;27766;52.174;5.456;2022-11-25T10:45:45;13.70;;;3.03;;
42110;SDS011;27766;52.174;5.456;2022-11-25T10:56:41;8.93;;;2.95;;
42110;SDS011;27766;52.174;5.456;2022-11-25T10:59:22;8.60;;;2.92;;
42110;SDS011;27766;52.174;5.456;2022-11-25T11:04:58;7.82;;;3.78;;
42110;SDS011;27766;52.174;5.456;2022-11-25T11:07:26;7.00;;;3.65;;
42110;SDS011;27766;52.174;5.456;2022-11-25T11:10:06;8.65;;;3.45;;
42110;SDS011;27766;52.174;5.456;2022-11-25T11:17:54;11.95;;;3.80;;
42110;SDS011;27766;52.174;5.456;2022-11-25T11:20:26;7.45;;;3.13;;
42110;SDS011;27766;52.174;5.456;2022-11-25T11:23:08;7.57;;;3.35;;
42110;SDS011;27766;52.174;5.456;2022-11-25T11:25:39;6.47;;;3.30;;
42110;SDS011;27766;52.174;5.456;2022-11-25T11:28:41;5.63;;;3.00;;
42110;SDS011;27766;52.174;5.456;2022-11-25T11:41:57;9.68;;;3.00;;
42110;SDS011;27766;52.174;5.456;2022-11-25T11:59:09;9.32;;;3.10;;
42110;SDS011;27766;52.174;5.456;2022-11-25T12:01:24;9.50;;;3.53;;
42110;SDS011;27766;52.174;5.456;2022-11-25T12:06:55;8.63;;;2.40;;
42110;SDS011;27766;52.174;5.456;2022-11-25T12:09:58;7.57;;;3.25;;
42110;SDS011;27766;52.174;5.456;2022-11-25T12:12:48;7.47;;;3.17;;
42110;SDS011;27766;52.174;5.456;2022-11-25T12:15:30;9.73;;;3.08;;
42110;SDS011;27766;52.174;5.456;2022-11-25T12:18:26;9.15;;;3.17;;
42110;SDS011;27766;52.174;5.456;2022-11-25T12:21:01;9.88;;;2.45;;
42110;SDS011;27766;52.174;5.456;2022-11-25T12:23:52;6.93;;;2.45;;
42110;SDS011;27766;52.174;5.456;2022-11-25T12:26:32;7.35;;;2.60;;
42110;SDS011;27766;52.174;5.456;2022-11-25T12:29:11;13.25;;;2.70;;
42110;SDS011;27766;52.174;5.456;2022-11-25T12:31:48;13.98;;;3.80;;
42110;SDS011;27766;52.174;5.456;2022-11-25T12:34:27;7.80;;;2.92;;
42110;SDS011;27766;52.174;5.456;2022-11-25T12:37:04;15.15;;;3.47;;
42110;SDS011;27766;52.174;5.456;2022-11-25T12:39:53;8.85;;;2.42;;
42110;SDS011;27766;52.174;5.456;2022-11-25T12:42:29;7.55;;;2.88;;
42110;SDS011;27766;52.174;5.456;2022-11-25T12:45:06;8.60;;;3.13;;
42110;SDS011;27766;52.174;5.456;2022-11-25T12:47:42;5.55;;;2.10;;
42110;SDS011;27766;52.174;5.456;2022-11-25T12:50:46;6.70;;;2.83;;
42110;SDS011;27766;52.174;5.456;2022-11-25T12:53:36;6.53;;;3.35;;
42110;SDS011;27766;52.174;5.456;2022-11-25T12:56:15;7.70;;;2.67;;
42110;SDS011;27766;52.174;5.456;2022-11-25T13:01:48;13.70;;;4.55;;
42110;SDS011;27766;52.174;5.456;2022-11-25T13:07:08;15.90;;;3.53;;
42110;SDS011;27766;52.174;5.456;2022-11-25T13:10:05;12.38;;;4.00;;
42110;SDS011;27766;52.174;5.456;2022-11-25T13:13:01;12.50;;;3.63;;
42110;SDS011;27766;52.174;5.456;2022-11-25T13:15:31;8.73;;;2.58;;
42110;SDS011;27766;52.174;5.456;2022-11-25T13:18:18;13.00;;;2.92;;
42110;SDS011;27766;52.174;5.456;2022-11-25T13:20:49;9.88;;;2.85;;
42110;SDS011;27766;52.174;5.456;2022-11-25T13:25:46;15.50;;;3.63;;
42110;SDS011;27766;52.174;5.456;2022-11-25T13:31:20;8.20;;;2.42;;
42110;SDS011;27766;52.174;5.456;2022-11-25T13:36:22;3.47;;;1.83;;
42110;SDS011;27766;52.174;5.456;2022-11-25T13:41:22;10.65;;;3.15;;
42110;SDS011;27766;52.174;5.456;2022-11-25T13:44:05;11.38;;;3.03;;
42110;SDS011;27766;52.174;5.456;2022-11-25T13:46:58;10.23;;;3.15;;
42110;SDS011;27766;52.174;5.456;2022-11-25T13:54:56;11.60;;;3.00;;
42110;SDS011;27766;52.174;5.456;2022-11-25T13:57:31;8.07;;;2.63;;
42110;SDS011;27766;52.174;5.456;2022-11-25T14:00:08;8.02;;;3.13;;
42110;SDS011;27766;52.174;5.456;2022-11-25T14:11:29;7.93;;;3.05;;
42110;SDS011;27766;52.174;5.456;2022-11-25T14:14:02;10.68;;;2.70;;
42110;SDS011;27766;52.174;5.456;2022-11-25T14:16:53;10.25;;;3.10;;
42110;SDS011;27766;52.174;5.456;2022-11-25T14:22:32;11.10;;;2.42;;
42110;SDS011;27766;52.174;5.456;2022-11-25T14:27:46;9.20;;;3.00;;
42110;SDS011;27766;52.174;5.456;2022-11-25T14:30:17;10.93;;;3.15;;
42110;SDS011;27766;52.174;5.456;2022-11-25T14:35:27;8.10;;;2.33;;
42110;SDS011;27766;52.174;5.456;2022-11-25T14:38:03;8.90;;;2.38;;
42110;SDS011;27766;52.174;5.456;2022-11-25T14:40:41;9.68;;;2.72;;
42110;SDS011;27766;52.174;5.456;2022-11-25T14:46:07;12.13;;;3.47;;
42110;SDS011;27766;52.174;5.456;2022-11-25T14:48:35;10.25;;;3.60;;
42110;SDS011;27766;52.174;5.456;2022-11-25T14:51:06;9.32;;;3.33;;
42110;SDS011;27766;52.174;5.456;2022-11-25T14:53:42;9.00;;;3.17;;
42110;SDS011;27766;52.174;5.456;2022-11-25T14:56:15;11.65;;;4.28;;
42110;SDS011;27766;52.174;5.456;2022-11-25T14:58:49;8.73;;;3.63;;
42110;SDS011;27766;52.174;5.456;2022-11-25T15:01:22;7.32;;;2.67;;
42110;SDS011;27766;52.174;5.456;2022-11-25T15:06:39;4.60;;;1.92;;
42110;SDS011;27766;52.174;5.456;2022-11-25T15:09:19;7.00;;;2.75;;
42110;SDS011;27766;52.174;5.456;2022-11-25T15:11:58;6.28;;;2.90;;
42110;SDS011;27766;52.174;5.456;2022-11-25T15:14:29;7.38;;;3.08;;
42110;SDS011;27766;52.174;5.456;2022-11-25T15:17:08;15.45;;;5.93;;
42110;SDS011;27766;52.174;5.456;2022-11-25T15:19:48;10.63;;;4.28;;
42110;SDS011;27766;52.174;5.456;2022-11-25T15:22:16;11.10;;;3.90;;
42110;SDS011;27766;52.174;5.456;2022-11-25T15:24:53;13.50;;;6.07;;
42110;SDS011;27766;52.174;5.456;2022-11-25T15:27:31;19.80;;;8.75;;
42110;SDS011;27766;52.174;5.456;2022-11-25T15:29:59;13.02;;;5.30;;
42110;SDS011;27766;52.174;5.456;2022-11-25T15:32:32;10.50;;;5.18;;
42110;SDS011;27766;52.174;5.456;2022-11-25T15:35:03;16.95;;;7.90;;
42110;SDS011;27766;52.174;5.456;2022-11-25T15:37:32;12.98;;;5.80;;
42110;SDS011;27766;52.174;5.456;2022-11-25T15:42:56;13.88;;;7.85;;
42110;SDS011;27766;52.174;5.456;2022-11-25T15:45:26;14.02;;;6.13;;
42110;SDS011;27766;52.174;5.456;2022-11-25T15:48:01;15.43;;;6.30;;
42110;SDS011;27766;52.174;5.456;2022-11-25T15:50:29;12.77;;;6.30;;
42110;SDS011;27766;52.174;5.456;2022-11-25T15:52:58;14.68;;;7.40;;
42110;SDS011;27766;52.174;5.456;2022-11-25T15:58:00;8.55;;;5.35;;
42110;SDS011;27766;52.174;5.456;2022-11-25T16:00:30;12.03;;;5.97;;
42110;SDS011;27766;52.174;5.456;2022-11-25T16:02:57;19.92;;;9.27;;
42110;SDS011;27766;52.174;5.456;2022-11-25T16:18:40;21.25;;;12.35;;
42110;SDS011;27766;52.174;5.456;2022-11-25T16:21:15;23.05;;;10.32;;
42110;SDS011;27766;52.174;5.456;2022-11-25T16:23:49;24.13;;;10.65;;
42110;SDS011;27766;52.174;5.456;2022-11-25T16:28:59;17.65;;;10.20;;
42110;SDS011;27766;52.174;5.456;2022-11-25T16:31:27;22.00;;;9.27;;
42110;SDS011;27766;52.174;5.456;2022-11-25T16:33:55;18.40;;;9.57;;
42110;SDS011;27766;52.174;5.456;2022-11-25T16:36:27;21.75;;;8.68;;
42110;SDS011;27766;52.174;5.456;2022-11-25T16:38:54;13.27;;;7.22;;
42110;SDS011;27766;52.174;5.456;2022-11-25T16:41:24;12.77;;;7.22;;
42110;SDS011;27766;52.174;5.456;2022-11-25T16:43:52;15.48;;;6.82;;
42110;SDS011;27766;52.174;5.456;2022-11-25T16:46:25;19.50;;;7.90;;
42110;SDS011;27766;52.174;5.456;2022-11-25T16:48:54;12.27;;;7.53;;
42110;SDS011;27766;52.174;5.456;2022-11-25T16:51:21;16.27;;;8.77;;
42110;SDS011;27766;52.174;5.456;2022-11-25T16:53:50;18.75;;;9.30;;
42110;SDS011;27766;52.174;5.456;2022-11-25T16:56:18;19.10;;;9.95;;
42110;SDS011;27766;52.174;5.456;2022-11-25T16:58:51;22.27;;;10.70;;
42110;SDS011;27766;52.174;5.456;2022-11-25T17:01:18;19.73;;;9.77;;
42110;SDS011;27766;52.174;5.456;2022-11-25T17:03:48;19.05;;;9.43;;
42110;SDS011;27766;52.174;5.456;2022-11-25T17:06:19;20.15;;;9.38;;
42110;SDS011;27766;52.174;5.456;2022-11-25T17:08:48;23.90;;;10.33;;
42110;SDS011;27766;52.174;5.456;2022-11-25T17:11:37;19.25;;;8.40;;
42110;SDS011;27766;52.174;5.456;2022-11-25T17:14:13;20.85;;;7.72;;
42110;SDS011;27766;52.174;5.456;2022-11-25T17:16:47;13.55;;;6.43;;
42110;SDS011;27766;52.174;5.456;2022-11-25T17:19:14;17.60;;;6.78;;
42110;SDS011;27766;52.174;5.456;2022-11-25T17:21:43;16.13;;;7.63;;
42110;SDS011;27766;52.174;5.456;2022-11-25T17:24:20;18.23;;;8.65;;
42110;SDS011;27766;52.174;5.456;2022-11-25T17:26:49;19.73;;;9.18;;
42110;SDS011;27766;52.174;5.456;2022-11-25T17:29:23;21.70;;;9.73;;
42110;SDS011;27766;52.174;5.456;2022-11-25T17:31:57;19.35;;;10.13;;